PWSweather.com
Personal Weather Stations
Station Observations
AC5CV
Greenleaf Peninsula, Waco, TX 76710

Greenleaf PeninsulaWaco, TX 76710

Lat: 31.565, Lon: -97.198

Elevation: 570

Station Type: Ambient WS2080

http://johnchamber.dyndns.info/

High Low Average
Temperature 95.4°F35.2°C 76.8°F24.9°C 85.0°F29.4°C
Dew Point 74.0°F23.3°C 67.5°F19.7°C 70.9°F21.6°C
Winds 11.6 mph 18.7 kmh 2.6 mph 4.2 kmh 6.0 mph SSE9.7 kmh SSE
Wind Gusts 22.4 mph36.0 kmh 4.9 mph7.9 kmh 12.0 mph19.3 kmh
Humidity 89% 42% 65%
Pressure 29.25 in990.5 mb 29.08 in984.8 mb -
Precipitation 0.00 in0.0 mm - -
Hour Temp Dew Point Humidity Winds Wind Gusts Pressure Precip Precip Rate Daily Precip Total
12:00 AM 83.0°F28.3°C 72.3°F22.4°C 70% 5.4 mph SSE8.7 kmh SSE 12.3 mph19.8 kmh 29.10 in985.4 mb 0.00 in0.0 mm 0.00 in0.0 mm 0.00 in0.0 mm
12:05 AM 82.9°F28.3°C 72.7°F22.6°C 72% 9.8 mph SSE15.8 kmh SSE 15.0 mph24.1 kmh 29.10 in985.4 mb 0.00 in0.0 mm 0.00 in0.0 mm 0.00 in0.0 mm
12:10 AM 82.9°F28.3°C 72.9°F22.7°C 72% 8.0 mph SSE12.9 kmh SSE 19.9 mph32.0 kmh 29.10 in985.4 mb 0.00 in0.0 mm 0.00 in0.0 mm 0.00 in0.0 mm
12:15 AM 82.4°F28.0°C 72.5°F22.5°C 72% 8.7 mph SSE14.0 kmh SSE 15.0 mph24.1 kmh 29.09 in985.1 mb 0.00 in0.0 mm 0.00 in0.0 mm 0.00 in0.0 mm
12:20 AM 82.2°F27.9°C 72.3°F22.4°C 72% 10.1 mph S16.3 kmh S 17.4 mph28.0 kmh 29.09 in985.1 mb 0.00 in0.0 mm 0.00 in0.0 mm 0.00 in0.0 mm
12:25 AM 82.1°F27.8°C 72.5°F22.5°C 73% 6.4 mph SSE10.3 kmh SSE 9.8 mph15.8 kmh 29.09 in985.1 mb 0.00 in0.0 mm 0.00 in0.0 mm 0.00 in0.0 mm
12:30 AM 82.0°F27.8°C 72.5°F22.5°C 73% 7.2 mph S11.6 kmh S 17.4 mph28.0 kmh 29.09 in985.1 mb 0.00 in0.0 mm 0.00 in0.0 mm 0.00 in0.0 mm
12:35 AM 81.8°F27.7°C 72.7°F22.6°C 74% 9.8 mph S15.8 kmh S 15.0 mph24.1 kmh 29.08 in984.8 mb 0.00 in0.0 mm 0.00 in0.0 mm 0.00 in0.0 mm
12:40 AM 81.7°F27.6°C 72.7°F22.6°C 74% 6.0 mph SSE9.7 kmh SSE 12.3 mph19.8 kmh 29.09 in985.1 mb 0.00 in0.0 mm 0.00 in0.0 mm 0.00 in0.0 mm
12:45 AM 81.7°F27.6°C 73.0°F22.8°C 75% 6.9 mph S11.1 kmh S 12.3 mph19.8 kmh 29.09 in985.1 mb 0.00 in0.0 mm 0.00 in0.0 mm 0.00 in0.0 mm
12:50 AM 81.5°F27.5°C 73.0°F22.8°C 76% 6.5 mph S10.5 kmh S 12.3 mph19.8 kmh 29.08 in984.8 mb 0.00 in0.0 mm 0.00 in0.0 mm 0.00 in0.0 mm
12:55 AM 81.2°F27.3°C 72.9°F22.7°C 76% 6.4 mph SSE10.3 kmh SSE 15.0 mph24.1 kmh 29.08 in984.8 mb 0.00 in0.0 mm 0.00 in0.0 mm 0.00 in0.0 mm
01:00 AM 81.0°F27.2°C 73.0°F22.8°C 77% 7.1 mph S11.4 kmh S 15.0 mph24.1 kmh 29.08 in984.8 mb 0.00 in0.0 mm 0.00 in0.0 mm 0.00 in0.0 mm
01:05 AM 81.0°F27.2°C 73.3°F22.9°C 78% 4.9 mph S7.9 kmh S 17.4 mph28.0 kmh 29.08 in984.8 mb 0.00 in0.0 mm 0.00 in0.0 mm 0.00 in0.0 mm
01:10 AM 80.9°F27.2°C 73.4°F23.0°C 78% 6.4 mph SSE10.3 kmh SSE 17.4 mph28.0 kmh 29.08 in984.8 mb 0.00 in0.0 mm 0.00 in0.0 mm 0.00 in0.0 mm
01:15 AM 80.7°F27.1°C 73.2°F22.9°C 78% 7.4 mph S11.9 kmh S 15.0 mph24.1 kmh 29.08 in984.8 mb 0.00 in0.0 mm 0.00 in0.0 mm 0.00 in0.0 mm
01:20 AM 80.4°F26.9°C 73.6°F23.1°C 80% 4.1 mph S6.6 kmh S 7.4 mph11.9 kmh 29.08 in984.8 mb 0.00 in0.0 mm 0.00 in0.0 mm 0.00 in0.0 mm
01:25 AM 80.4°F26.9°C 73.6°F23.1°C 80% 9.2 mph SSE14.8 kmh SSE 15.0 mph24.1 kmh 29.08 in984.8 mb 0.00 in0.0 mm 0.00 in0.0 mm 0.00 in0.0 mm
01:30 AM 80.4°F26.9°C 73.9°F23.3°C 81% 6.3 mph SSE10.1 kmh SSE 12.3 mph19.8 kmh 29.08 in984.8 mb 0.00 in0.0 mm 0.00 in0.0 mm 0.00 in0.0 mm
01:35 AM 80.0°F26.7°C 73.6°F23.1°C 81% 4.9 mph S7.9 kmh S 12.3 mph19.8 kmh 29.09 in985.1 mb 0.00 in0.0 mm 0.00 in0.0 mm 0.00 in0.0 mm
01:40 AM 79.7°F26.5°C 73.3°F22.9°C 81% 4.2 mph SE6.8 kmh SE 12.3 mph19.8 kmh 29.09 in985.1 mb 0.00 in0.0 mm 0.00 in0.0 mm 0.00 in0.0 mm
01:45 AM 79.5°F26.4°C 73.4°F23.0°C 82% 9.1 mph SSW14.6 kmh SSW 17.4 mph28.0 kmh 29.09 in985.1 mb 0.00 in0.0 mm 0.00 in0.0 mm 0.00 in0.0 mm
01:50 AM 79.5°F26.4°C 73.5°F23.1°C 82% 4.3 mph SSE6.9 kmh SSE 15.0 mph24.1 kmh 29.09 in985.1 mb 0.00 in0.0 mm 0.00 in0.0 mm 0.00 in0.0 mm
01:55 AM 79.4°F26.3°C 73.5°F23.1°C 82% 4.3 mph SSE6.9 kmh SSE 7.4 mph11.9 kmh 29.09 in985.1 mb 0.00 in0.0 mm 0.00 in0.0 mm 0.00 in0.0 mm
02:00 AM 79.2°F26.2°C 73.6°F23.1°C 83% 6.5 mph S10.5 kmh S 15.0 mph24.1 kmh 29.09 in985.1 mb 0.00 in0.0 mm 0.00 in0.0 mm 0.00 in0.0 mm
02:05 AM 79.2°F26.2°C 73.6°F23.1°C 83% 8.5 mph S13.7 kmh S 15.0 mph24.1 kmh 29.10 in985.4 mb 0.00 in0.0 mm 0.00 in0.0 mm 0.00 in0.0 mm
02:10 AM 79.0°F26.1°C 73.4°F23.0°C 83% 5.5 mph S8.9 kmh S 12.3 mph19.8 kmh 29.10 in985.4 mb 0.00 in0.0 mm 0.00 in0.0 mm 0.00 in0.0 mm
02:15 AM 78.9°F26.1°C 73.3°F22.9°C 83% 7.6 mph S12.2 kmh S 12.3 mph19.8 kmh 29.10 in985.4 mb 0.00 in0.0 mm 0.00 in0.0 mm 0.00 in0.0 mm
02:20 AM 78.7°F25.9°C 73.3°F22.9°C 84% 7.3 mph SSE11.7 kmh SSE 15.0 mph24.1 kmh 29.11 in985.8 mb 0.00 in0.0 mm 0.00 in0.0 mm 0.00 in0.0 mm
02:25 AM 78.6°F25.9°C 73.7°F23.2°C 85% 7.7 mph SE12.4 kmh SE 15.0 mph24.1 kmh 29.10 in985.4 mb 0.00 in0.0 mm 0.00 in0.0 mm 0.00 in0.0 mm
02:30 AM 78.6°F25.9°C 73.7°F23.2°C 85% 5.5 mph SSE8.9 kmh SSE 9.8 mph15.8 kmh 29.11 in985.8 mb 0.00 in0.0 mm 0.00 in0.0 mm 0.00 in0.0 mm
02:35 AM 78.6°F25.9°C 73.7°F23.2°C 85% 6.9 mph S11.1 kmh S 9.8 mph15.8 kmh 29.11 in985.8 mb 0.00 in0.0 mm 0.00 in0.0 mm 0.00 in0.0 mm
02:40 AM 78.6°F25.9°C 73.7°F23.2°C 85% 8.1 mph S13.0 kmh S 15.0 mph24.1 kmh 29.11 in985.8 mb 0.00 in0.0 mm 0.00 in0.0 mm 0.00 in0.0 mm
02:45 AM 78.6°F25.9°C 73.7°F23.2°C 85% 4.9 mph SSE7.9 kmh SSE 9.8 mph15.8 kmh 29.11 in985.8 mb 0.00 in0.0 mm 0.00 in0.0 mm 0.00 in0.0 mm
02:50 AM 78.6°F25.9°C 74.0°F23.3°C 86% 5.9 mph S9.5 kmh S 9.8 mph15.8 kmh 29.11 in985.8 mb 0.00 in0.0 mm 0.00 in0.0 mm 0.00 in0.0 mm
02:55 AM 78.6°F25.9°C 74.0°F23.3°C 86% 5.2 mph SSE8.4 kmh SSE 9.8 mph15.8 kmh 29.12 in986.1 mb 0.00 in0.0 mm 0.00 in0.0 mm 0.00 in0.0 mm
03:00 AM 78.6°F25.9°C 74.0°F23.3°C 86% 7.6 mph SE12.2 kmh SE 15.0 mph24.1 kmh 29.12 in986.1 mb 0.00 in0.0 mm 0.00 in0.0 mm 0.00 in0.0 mm
03:05 AM 78.4°F25.8°C 73.9°F23.3°C 86% 7.1 mph SSE11.4 kmh SSE 12.3 mph19.8 kmh 29.12 in986.1 mb 0.00 in0.0 mm 0.00 in0.0 mm 0.00 in0.0 mm
03:10 AM 78.3°F25.7°C 73.7°F23.2°C 86% 6.6 mph SE10.6 kmh SE 9.8 mph15.8 kmh 29.12 in986.1 mb 0.00 in0.0 mm 0.00 in0.0 mm 0.00 in0.0 mm
03:15 AM 77.9°F25.5°C 73.4°F23.0°C 86% 6.1 mph S9.8 kmh S 9.8 mph15.8 kmh 29.12 in986.1 mb 0.00 in0.0 mm 0.00 in0.0 mm 0.00 in0.0 mm
03:20 AM 77.2°F25.1°C 73.0°F22.8°C 87% 6.0 mph SSE9.7 kmh SSE 12.3 mph19.8 kmh 29.13 in986.5 mb 0.00 in0.0 mm 0.00 in0.0 mm 0.00 in0.0 mm
03:25 AM 77.2°F25.1°C 73.0°F22.8°C 87% 4.1 mph S6.6 kmh S 9.8 mph15.8 kmh 29.13 in986.5 mb 0.00 in0.0 mm 0.00 in0.0 mm 0.00 in0.0 mm
03:30 AM 77.2°F25.1°C 73.0°F22.8°C 87% 3.5 mph S5.6 kmh S 7.4 mph11.9 kmh 29.13 in986.5 mb 0.00 in0.0 mm 0.00 in0.0 mm 0.00 in0.0 mm
03:35 AM 77.2°F25.1°C 72.9°F22.7°C 87% 5.9 mph S9.5 kmh S 9.8 mph15.8 kmh 29.13 in986.5 mb 0.00 in0.0 mm 0.00 in0.0 mm 0.00 in0.0 mm
03:40 AM 77.2°F25.1°C 72.7°F22.6°C 86% 3.8 mph SSE6.1 kmh SSE 7.4 mph11.9 kmh 29.13 in986.5 mb 0.00 in0.0 mm 0.00 in0.0 mm 0.00 in0.0 mm
03:45 AM 77.2°F25.1°C 72.7°F22.6°C 86% 4.4 mph SSE7.1 kmh SSE 15.0 mph24.1 kmh 29.13 in986.5 mb 0.00 in0.0 mm 0.00 in0.0 mm 0.00 in0.0 mm
03:50 AM 77.2°F25.1°C 72.7°F22.6°C 86% 4.9 mph S7.9 kmh S 12.3 mph19.8 kmh 29.13 in986.5 mb 0.00 in0.0 mm 0.00 in0.0 mm 0.00 in0.0 mm
03:55 AM 77.2°F25.1°C 72.7°F22.6°C 86% 4.5 mph S7.2 kmh S 7.4 mph11.9 kmh 29.13 in986.5 mb 0.00 in0.0 mm 0.00 in0.0 mm 0.00 in0.0 mm
04:00 AM 77.2°F25.1°C 72.7°F22.6°C 86% 6.8 mph S10.9 kmh S 9.8 mph15.8 kmh 29.13 in986.5 mb 0.00 in0.0 mm 0.00 in0.0 mm 0.00 in0.0 mm
04:05 AM 77.2°F25.1°C 72.7°F22.6°C 86% 6.6 mph SE10.6 kmh SE 9.8 mph15.8 kmh 29.13 in986.5 mb 0.00 in0.0 mm 0.00 in0.0 mm 0.00 in0.0 mm
04:10 AM 77.2°F25.1°C 72.7°F22.6°C 86% 7.0 mph SSE11.3 kmh SSE 12.3 mph19.8 kmh 29.13 in986.5 mb 0.00 in0.0 mm 0.00 in0.0 mm 0.00 in0.0 mm
04:15 AM 77.2°F25.1°C 72.7°F22.6°C 86% 5.9 mph S9.5 kmh S 9.8 mph15.8 kmh 29.13 in986.5 mb 0.00 in0.0 mm 0.00 in0.0 mm 0.00 in0.0 mm
04:20 AM 77.2°F25.1°C 72.7°F22.6°C 86% 7.7 mph S12.4 kmh S 12.3 mph19.8 kmh 29.13 in986.5 mb 0.00 in0.0 mm 0.00 in0.0 mm 0.00 in0.0 mm
04:25 AM 77.2°F25.1°C 72.7°F22.6°C 86% 7.7 mph SSE12.4 kmh SSE 12.3 mph19.8 kmh 29.13 in986.5 mb 0.00 in0.0 mm 0.00 in0.0 mm 0.00 in0.0 mm
04:30 AM 77.2°F25.1°C 72.7°F22.6°C 86% 7.4 mph SE11.9 kmh SE 12.3 mph19.8 kmh 29.13 in986.5 mb 0.00 in0.0 mm 0.00 in0.0 mm 0.00 in0.0 mm
04:35 AM 77.2°F25.1°C 72.7°F22.6°C 86% 7.0 mph SSE11.3 kmh SSE 12.3 mph19.8 kmh 29.13 in986.5 mb 0.00 in0.0 mm 0.00 in0.0 mm 0.00 in0.0 mm
04:40 AM 77.2°F25.1°C 73.0°F22.8°C 87% 4.7 mph S7.6 kmh S 7.4 mph11.9 kmh 29.13 in986.5 mb 0.00 in0.0 mm 0.00 in0.0 mm 0.00 in0.0 mm
04:45 AM 77.2°F25.1°C 73.0°F22.8°C 87% 4.2 mph SSE6.8 kmh SSE 7.4 mph11.9 kmh 29.14 in986.8 mb 0.00 in0.0 mm 0.00 in0.0 mm 0.00 in0.0 mm
04:50 AM 77.2°F25.1°C 73.0°F22.8°C 87% 3.3 mph SSE5.3 kmh SSE 7.4 mph11.9 kmh 29.14 in986.8 mb 0.00 in0.0 mm 0.00 in0.0 mm 0.00 in0.0 mm
04:55 AM 77.2°F25.1°C 73.0°F22.8°C 87% 4.0 mph SE6.4 kmh SE 12.3 mph19.8 kmh 29.14 in986.8 mb 0.00 in0.0 mm 0.00 in0.0 mm 0.00 in0.0 mm
05:00 AM 77.2°F25.1°C 73.0°F22.8°C 87% 6.4 mph SSE10.3 kmh SSE 15.0 mph24.1 kmh 29.14 in986.8 mb 0.00 in0.0 mm 0.00 in0.0 mm 0.00 in0.0 mm
05:05 AM 77.2°F25.1°C 73.0°F22.8°C 87% 6.0 mph S9.7 kmh S 9.8 mph15.8 kmh 29.14 in986.8 mb 0.00 in0.0 mm 0.00 in0.0 mm 0.00 in0.0 mm
05:10 AM 77.2°F25.1°C 73.0°F22.8°C 87% 5.8 mph SSE9.3 kmh SSE 9.8 mph15.8 kmh 29.15 in987.1 mb 0.00 in0.0 mm 0.00 in0.0 mm 0.00 in0.0 mm
05:15 AM 77.2°F25.1°C 73.4°F23.0°C 88% 6.4 mph SSE10.3 kmh SSE 12.3 mph19.8 kmh 29.14 in986.8 mb 0.00 in0.0 mm 0.00 in0.0 mm 0.00 in0.0 mm
05:20 AM 77.2°F25.1°C 73.4°F23.0°C 88% 5.6 mph S9.0 kmh S 7.4 mph11.9 kmh 29.14 in986.8 mb 0.00 in0.0 mm 0.00 in0.0 mm 0.00 in0.0 mm
05:25 AM 77.2°F25.1°C 73.4°F23.0°C 88% 5.6 mph SSE9.0 kmh SSE 12.3 mph19.8 kmh 29.14 in986.8 mb 0.00 in0.0 mm 0.00 in0.0 mm 0.00 in0.0 mm
05:30 AM 77.2°F25.1°C 73.6°F23.1°C 89% 5.9 mph S9.5 kmh S 9.8 mph15.8 kmh 29.15 in987.1 mb 0.00 in0.0 mm 0.00 in0.0 mm 0.00 in0.0 mm
05:35 AM 77.1°F25.1°C 73.6°F23.1°C 89% 8.4 mph SE13.5 kmh SE 12.3 mph19.8 kmh 29.14 in986.8 mb 0.00 in0.0 mm 0.00 in0.0 mm 0.00 in0.0 mm
05:40 AM 77.0°F25.0°C 73.5°F23.1°C 89% 7.8 mph SSE12.6 kmh SSE 15.0 mph24.1 kmh 29.14 in986.8 mb 0.00 in0.0 mm 0.00 in0.0 mm 0.00 in0.0 mm
05:45 AM 77.0°F25.0°C 73.5°F23.1°C 89% 6.1 mph S9.8 kmh S 12.3 mph19.8 kmh 29.14 in986.8 mb 0.00 in0.0 mm 0.00 in0.0 mm 0.00 in0.0 mm
05:50 AM 77.0°F25.0°C 73.5°F23.1°C 89% 6.1 mph S9.8 kmh S 9.8 mph15.8 kmh 29.14 in986.8 mb 0.00 in0.0 mm 0.00 in0.0 mm 0.00 in0.0 mm
05:55 AM 77.0°F25.0°C 73.5°F23.1°C 89% 4.7 mph SSE7.6 kmh SSE 9.8 mph15.8 kmh 29.15 in987.1 mb 0.00 in0.0 mm 0.00 in0.0 mm 0.00 in0.0 mm
06:00 AM 77.0°F25.0°C 73.5°F23.1°C 89% 7.0 mph SSE11.3 kmh SSE 15.0 mph24.1 kmh 29.15 in987.1 mb 0.00 in0.0 mm 0.00 in0.0 mm 0.00 in0.0 mm
06:05 AM 77.0°F25.0°C 73.5°F23.1°C 89% 3.7 mph SSE6.0 kmh SSE 7.4 mph11.9 kmh 29.15 in987.1 mb 0.00 in0.0 mm 0.00 in0.0 mm 0.00 in0.0 mm
06:10 AM 76.8°F24.9°C 73.4°F23.0°C 89% 4.7 mph S7.6 kmh S 9.8 mph15.8 kmh 29.15 in987.1 mb 0.00 in0.0 mm 0.00 in0.0 mm 0.00 in0.0 mm
06:15 AM 76.8°F24.9°C 73.3°F22.9°C 89% 4.5 mph S7.2 kmh S 9.8 mph15.8 kmh 29.15 in987.1 mb 0.00 in0.0 mm 0.00 in0.0 mm 0.00 in0.0 mm
06:20 AM 77.0°F25.0°C 73.5°F23.1°C 89% 6.5 mph S10.5 kmh S 12.3 mph19.8 kmh 29.15 in987.1 mb 0.00 in0.0 mm 0.00 in0.0 mm 0.00 in0.0 mm
06:25 AM 77.0°F25.0°C 73.5°F23.1°C 89% 6.5 mph S10.5 kmh S 12.3 mph19.8 kmh 29.15 in987.1 mb 0.00 in0.0 mm 0.00 in0.0 mm 0.00 in0.0 mm
06:30 AM 77.0°F25.0°C 73.5°F23.1°C 89% 4.8 mph SSE7.7 kmh SSE 9.8 mph15.8 kmh 29.16 in987.5 mb 0.00 in0.0 mm 0.00 in0.0 mm 0.00 in0.0 mm
06:35 AM 76.8°F24.9°C 73.3°F22.9°C 89% 6.2 mph S10.0 kmh S 12.3 mph19.8 kmh 29.15 in987.1 mb 0.00 in0.0 mm 0.00 in0.0 mm 0.00 in0.0 mm
06:40 AM 76.9°F24.9°C 73.4°F23.0°C 89% 4.4 mph SSE7.1 kmh SSE 7.4 mph11.9 kmh 29.15 in987.1 mb 0.00 in0.0 mm 0.00 in0.0 mm 0.00 in0.0 mm
06:45 AM 77.0°F25.0°C 73.5°F23.1°C 89% 6.7 mph S10.8 kmh S 15.0 mph24.1 kmh 29.16 in987.5 mb 0.00 in0.0 mm 0.00 in0.0 mm 0.00 in0.0 mm
06:50 AM 77.0°F25.0°C 73.2°F22.9°C 88% 9.3 mph S15.0 kmh S 12.3 mph19.8 kmh 29.15 in987.1 mb 0.00 in0.0 mm 0.00 in0.0 mm 0.00 in0.0 mm
06:55 AM 77.0°F25.0°C 72.9°F22.7°C 87% 5.7 mph S9.2 kmh S 17.4 mph28.0 kmh 29.16 in987.5 mb 0.00 in0.0 mm 0.00 in0.0 mm 0.00 in0.0 mm
07:00 AM 77.1°F25.1°C 72.9°F22.7°C 87% 6.7 mph S10.8 kmh S 12.3 mph19.8 kmh 29.16 in987.5 mb 0.00 in0.0 mm 0.00 in0.0 mm 0.00 in0.0 mm
07:05 AM 77.2°F25.1°C 72.8°F22.7°C 86% 7.1 mph SSE11.4 kmh SSE 15.0 mph24.1 kmh 29.16 in987.5 mb 0.00 in0.0 mm 0.00 in0.0 mm 0.00 in0.0 mm
07:10 AM 77.2°F25.1°C 72.7°F22.6°C 86% 7.1 mph SSE11.4 kmh SSE 12.3 mph19.8 kmh 29.16 in987.5 mb 0.00 in0.0 mm 0.00 in0.0 mm 0.00 in0.0 mm
07:15 AM 77.2°F25.1°C 72.5°F22.5°C 86% 6.8 mph SSE10.9 kmh SSE 12.3 mph19.8 kmh 29.17 in987.8 mb 0.00 in0.0 mm 0.00 in0.0 mm 0.00 in0.0 mm
07:20 AM 77.2°F25.1°C 72.3°F22.4°C 85% 5.2 mph SSE8.4 kmh SSE 9.8 mph15.8 kmh 29.17 in987.8 mb 0.00 in0.0 mm 0.00 in0.0 mm 0.00 in0.0 mm
07:25 AM 77.2°F25.1°C 72.0°F22.2°C 84% 6.5 mph SSE10.5 kmh SSE 9.8 mph15.8 kmh 29.17 in987.8 mb 0.00 in0.0 mm 0.00 in0.0 mm 0.00 in0.0 mm
07:30 AM 77.2°F25.1°C 72.0°F22.2°C 84% 7.0 mph SSE11.3 kmh SSE 12.3 mph19.8 kmh 29.18 in988.1 mb 0.00 in0.0 mm 0.00 in0.0 mm 0.00 in0.0 mm
07:35 AM 77.2°F25.1°C 71.9°F22.2°C 84% 4.6 mph S7.4 kmh S 7.4 mph11.9 kmh 29.17 in987.8 mb 0.00 in0.0 mm 0.00 in0.0 mm 0.00 in0.0 mm
07:40 AM 77.8°F25.4°C 72.0°F22.2°C 83% 4.3 mph SSE6.9 kmh SSE 12.3 mph19.8 kmh 29.18 in988.1 mb 0.00 in0.0 mm 0.00 in0.0 mm 0.00 in0.0 mm
07:45 AM 78.3°F25.7°C 72.3°F22.4°C 82% 4.2 mph S6.8 kmh S 9.8 mph15.8 kmh 29.17 in987.8 mb 0.00 in0.0 mm 0.00 in0.0 mm 0.00 in0.0 mm
07:50 AM 78.3°F25.7°C 72.0°F22.2°C 81% 4.3 mph S6.9 kmh S 9.8 mph15.8 kmh 29.17 in987.8 mb 0.00 in0.0 mm 0.00 in0.0 mm 0.00 in0.0 mm
07:55 AM 78.3°F25.7°C 72.0°F22.2°C 81% 6.7 mph S10.8 kmh S 12.3 mph19.8 kmh 29.18 in988.1 mb 0.00 in0.0 mm 0.00 in0.0 mm 0.00 in0.0 mm
08:00 AM 78.5°F25.8°C 72.1°F22.3°C 81% 2.7 mph S4.3 kmh S 7.4 mph11.9 kmh 29.18 in988.1 mb 0.00 in0.0 mm 0.00 in0.0 mm 0.00 in0.0 mm
08:05 AM 78.6°F25.9°C 72.0°F22.2°C 80% 3.0 mph S4.8 kmh S 7.4 mph11.9 kmh 29.18 in988.1 mb 0.00 in0.0 mm 0.00 in0.0 mm 0.00 in0.0 mm
08:10 AM 78.6°F25.9°C 71.9°F22.2°C 80% 3.4 mph S5.5 kmh S 9.8 mph15.8 kmh 29.18 in988.1 mb 0.00 in0.0 mm 0.00 in0.0 mm 0.00 in0.0 mm
08:15 AM 78.6°F25.9°C 71.9°F22.2°C 80% 8.9 mph S14.3 kmh S 19.9 mph32.0 kmh 29.18 in988.1 mb 0.00 in0.0 mm 0.00 in0.0 mm 0.00 in0.0 mm
08:20 AM 78.6°F25.9°C 71.7°F22.1°C 80% 6.3 mph S10.1 kmh S 12.3 mph19.8 kmh 29.18 in988.1 mb 0.00 in0.0 mm 0.00 in0.0 mm 0.00 in0.0 mm
08:25 AM 78.6°F25.9°C 71.7°F22.1°C 79% 6.5 mph S10.5 kmh S 15.0 mph24.1 kmh 29.18 in988.1 mb 0.00 in0.0 mm 0.00 in0.0 mm 0.00 in0.0 mm
08:30 AM 78.6°F25.9°C 71.1°F21.7°C 78% 5.5 mph SSE8.9 kmh SSE 9.8 mph15.8 kmh 29.19 in988.5 mb 0.00 in0.0 mm 0.00 in0.0 mm 0.00 in0.0 mm
08:35 AM 78.6°F25.9°C 70.8°F21.6°C 77% 5.3 mph S8.5 kmh S 12.3 mph19.8 kmh 29.19 in988.5 mb 0.00 in0.0 mm 0.00 in0.0 mm 0.00 in0.0 mm
08:40 AM 78.9°F26.1°C 70.9°F21.6°C 77% 5.4 mph S8.7 kmh S 19.9 mph32.0 kmh 29.20 in988.8 mb 0.00 in0.0 mm 0.00 in0.0 mm 0.00 in0.0 mm
08:45 AM 79.1°F26.2°C 70.8°F21.6°C 76% 8.6 mph S13.8 kmh S 17.4 mph28.0 kmh 29.20 in988.8 mb 0.00 in0.0 mm 0.00 in0.0 mm 0.00 in0.0 mm
08:50 AM 79.1°F26.2°C 70.8°F21.6°C 76% 8.5 mph SSE13.7 kmh SSE 17.4 mph28.0 kmh 29.20 in988.8 mb 0.00 in0.0 mm 0.00 in0.0 mm 0.00 in0.0 mm
08:55 AM 79.2°F26.2°C 70.4°F21.3°C 75% 8.9 mph SSE14.3 kmh SSE 17.4 mph28.0 kmh 29.21 in989.2 mb 0.00 in0.0 mm 0.00 in0.0 mm 0.00 in0.0 mm
09:00 AM 79.3°F26.3°C 70.3°F21.3°C 74% 7.1 mph S11.4 kmh S 15.0 mph24.1 kmh 29.21 in989.2 mb 0.00 in0.0 mm 0.00 in0.0 mm 0.00 in0.0 mm
09:05 AM 79.7°F26.5°C 69.9°F21.1°C 72% 4.7 mph SSE7.6 kmh SSE 12.3 mph19.8 kmh 29.21 in989.2 mb 0.00 in0.0 mm 0.00 in0.0 mm 0.00 in0.0 mm
09:10 AM 79.9°F26.6°C 70.0°F21.1°C 72% 6.2 mph S10.0 kmh S 9.8 mph15.8 kmh 29.21 in989.2 mb 0.00 in0.0 mm 0.00 in0.0 mm 0.00 in0.0 mm
09:15 AM 80.1°F26.7°C 70.1°F21.2°C 72% 3.3 mph S5.3 kmh S 12.3 mph19.8 kmh 29.21 in989.2 mb 0.00 in0.0 mm 0.00 in0.0 mm 0.00 in0.0 mm
09:20 AM 80.5°F26.9°C 69.8°F21.0°C 70% 7.3 mph SSE11.7 kmh SSE 17.4 mph28.0 kmh 29.21 in989.2 mb 0.00 in0.0 mm 0.00 in0.0 mm 0.00 in0.0 mm
09:25 AM 81.0°F27.2°C 70.4°F21.3°C 70% 6.5 mph S10.5 kmh S 17.4 mph28.0 kmh 29.22 in989.5 mb 0.00 in0.0 mm 0.00 in0.0 mm 0.00 in0.0 mm
09:30 AM 81.0°F27.2°C 70.2°F21.2°C 70% 10.0 mph S16.1 kmh S 19.9 mph32.0 kmh 29.22 in989.5 mb 0.00 in0.0 mm 0.00 in0.0 mm 0.00 in0.0 mm
09:35 AM 81.0°F27.2°C 69.7°F20.9°C 69% 6.3 mph S10.1 kmh S 12.3 mph19.8 kmh 29.22 in989.5 mb 0.00 in0.0 mm 0.00 in0.0 mm 0.00 in0.0 mm
09:40 AM 81.1°F27.3°C 69.5°F20.8°C 68% 5.6 mph SSW9.0 kmh SSW 15.0 mph24.1 kmh 29.21 in989.2 mb 0.00 in0.0 mm 0.00 in0.0 mm 0.00 in0.0 mm
09:45 AM 81.7°F27.6°C 69.7°F20.9°C 67% 7.8 mph S12.6 kmh S 15.0 mph24.1 kmh 29.21 in989.2 mb 0.00 in0.0 mm 0.00 in0.0 mm 0.00 in0.0 mm
09:50 AM 81.9°F27.7°C 70.2°F21.2°C 68% 7.5 mph S12.1 kmh S 15.0 mph24.1 kmh 29.21 in989.2 mb 0.00 in0.0 mm 0.00 in0.0 mm 0.00 in0.0 mm
09:55 AM 82.1°F27.8°C 70.0°F21.1°C 67% 7.2 mph S11.6 kmh S 15.0 mph24.1 kmh 29.21 in989.2 mb 0.00 in0.0 mm 0.00 in0.0 mm 0.00 in0.0 mm
10:00 AM 82.5°F28.1°C 69.7°F20.9°C 66% 4.2 mph SW6.8 kmh SW 9.8 mph15.8 kmh 29.21 in989.2 mb 0.00 in0.0 mm 0.00 in0.0 mm 0.00 in0.0 mm
10:05 AM 83.5°F28.6°C 70.5°F21.4°C 65% 8.2 mph S13.2 kmh S 15.0 mph24.1 kmh 29.21 in989.2 mb 0.00 in0.0 mm 0.00 in0.0 mm 0.00 in0.0 mm
10:10 AM 83.5°F28.6°C 70.2°F21.2°C 64% 8.1 mph SSE13.0 kmh SSE 12.3 mph19.8 kmh 29.21 in989.2 mb 0.00 in0.0 mm 0.00 in0.0 mm 0.00 in0.0 mm
10:15 AM 83.5°F28.6°C 69.8°F21.0°C 64% 7.0 mph S11.3 kmh S 15.0 mph24.1 kmh 29.21 in989.2 mb 0.00 in0.0 mm 0.00 in0.0 mm 0.00 in0.0 mm
10:20 AM 83.5°F28.6°C 69.4°F20.8°C 63% 6.8 mph SE10.9 kmh SE 15.0 mph24.1 kmh 29.22 in989.5 mb 0.00 in0.0 mm 0.00 in0.0 mm 0.00 in0.0 mm
10:25 AM 83.7°F28.7°C 69.7°F20.9°C 63% 7.0 mph SSE11.3 kmh SSE 12.3 mph19.8 kmh 29.21 in989.2 mb 0.00 in0.0 mm 0.00 in0.0 mm 0.00 in0.0 mm
10:30 AM 83.8°F28.8°C 69.2°F20.7°C 62% 7.5 mph S12.1 kmh S 12.3 mph19.8 kmh 29.21 in989.2 mb 0.00 in0.0 mm 0.00 in0.0 mm 0.00 in0.0 mm
10:35 AM 83.9°F28.8°C 69.2°F20.7°C 61% 8.5 mph SE13.7 kmh SE 17.4 mph28.0 kmh 29.21 in989.2 mb 0.00 in0.0 mm 0.00 in0.0 mm 0.00 in0.0 mm
10:40 AM 84.1°F28.9°C 69.3°F20.7°C 61% 6.5 mph SE10.5 kmh SE 12.3 mph19.8 kmh 29.21 in989.2 mb 0.00 in0.0 mm 0.00 in0.0 mm 0.00 in0.0 mm
10:45 AM 85.5°F29.7°C 70.1°F21.2°C 60% 6.2 mph S10.0 kmh S 9.8 mph15.8 kmh 29.21 in989.2 mb 0.00 in0.0 mm 0.00 in0.0 mm 0.00 in0.0 mm
10:50 AM 85.6°F29.8°C 69.9°F21.1°C 60% 4.3 mph SSW6.9 kmh SSW 15.0 mph24.1 kmh 29.21 in989.2 mb 0.00 in0.0 mm 0.00 in0.0 mm 0.00 in0.0 mm
10:55 AM 85.6°F29.8°C 69.4°F20.8°C 59% 5.0 mph SE8.0 kmh SE 12.3 mph19.8 kmh 29.21 in989.2 mb 0.00 in0.0 mm 0.00 in0.0 mm 0.00 in0.0 mm
11:00 AM 85.7°F29.8°C 69.7°F20.9°C 59% 4.6 mph S7.4 kmh S 7.4 mph11.9 kmh 29.21 in989.2 mb 0.00 in0.0 mm 0.00 in0.0 mm 0.00 in0.0 mm
11:05 AM 86.0°F30.0°C 70.0°F21.1°C 59% 5.7 mph SSE9.2 kmh SSE 9.8 mph15.8 kmh 29.22 in989.5 mb 0.00 in0.0 mm 0.00 in0.0 mm 0.00 in0.0 mm
11:10 AM 86.0°F30.0°C 70.0°F21.1°C 59% 4.1 mph SE6.6 kmh SE 9.8 mph15.8 kmh 29.23 in989.8 mb 0.00 in0.0 mm 0.00 in0.0 mm 0.00 in0.0 mm
11:15 AM 86.0°F30.0°C 69.9°F21.1°C 59% 5.7 mph SSE9.2 kmh SSE 9.8 mph15.8 kmh 29.23 in989.8 mb 0.00 in0.0 mm 0.00 in0.0 mm 0.00 in0.0 mm
11:20 AM 86.1°F30.1°C 69.8°F21.0°C 58% 4.5 mph S7.2 kmh S 7.4 mph11.9 kmh 29.23 in989.8 mb 0.00 in0.0 mm 0.00 in0.0 mm 0.00 in0.0 mm
11:25 AM 86.7°F30.4°C 70.3°F21.3°C 58% 3.3 mph SSE5.3 kmh SSE 9.8 mph15.8 kmh 29.23 in989.8 mb 0.00 in0.0 mm 0.00 in0.0 mm 0.00 in0.0 mm
11:30 AM 87.0°F30.6°C 69.1°F20.6°C 56% 3.0 mph S4.8 kmh S 9.8 mph15.8 kmh 29.23 in989.8 mb 0.00 in0.0 mm 0.00 in0.0 mm 0.00 in0.0 mm
11:35 AM 87.2°F30.7°C 69.4°F20.8°C 56% 5.9 mph S9.5 kmh S 12.3 mph19.8 kmh 29.23 in989.8 mb 0.00 in0.0 mm 0.00 in0.0 mm 0.00 in0.0 mm
11:40 AM 87.3°F30.7°C 69.6°F20.9°C 56% 5.7 mph SSE9.2 kmh SSE 15.0 mph24.1 kmh 29.23 in989.8 mb 0.00 in0.0 mm 0.00 in0.0 mm 0.00 in0.0 mm
11:45 AM 87.5°F30.8°C 69.3°F20.7°C 55% 5.2 mph SSE8.4 kmh SSE 12.3 mph19.8 kmh 29.23 in989.8 mb 0.00 in0.0 mm 0.00 in0.0 mm 0.00 in0.0 mm
11:50 AM 87.6°F30.9°C 69.9°F21.1°C 56% 5.8 mph SE9.3 kmh SE 15.0 mph24.1 kmh 29.23 in989.8 mb 0.00 in0.0 mm 0.00 in0.0 mm 0.00 in0.0 mm
11:55 AM 87.4°F30.8°C 70.2°F21.2°C 57% 8.0 mph SSE12.9 kmh SSE 12.3 mph19.8 kmh 29.23 in989.8 mb 0.00 in0.0 mm 0.00 in0.0 mm 0.00 in0.0 mm
12:05 PM 86.8°F30.4°C 69.9°F21.1°C 57% 4.6 mph S7.4 kmh S 9.8 mph15.8 kmh 29.23 in989.8 mb 0.00 in0.0 mm 0.00 in0.0 mm 0.00 in0.0 mm
12:10 PM 86.9°F30.5°C 69.8°F21.0°C 57% 7.8 mph SSE12.6 kmh SSE 12.3 mph19.8 kmh 29.23 in989.8 mb 0.00 in0.0 mm 0.00 in0.0 mm 0.00 in0.0 mm
12:15 PM 86.9°F30.5°C 69.6°F20.9°C 57% 6.3 mph SE10.1 kmh SE 12.3 mph19.8 kmh 29.23 in989.8 mb 0.00 in0.0 mm 0.00 in0.0 mm 0.00 in0.0 mm
12:20 PM 87.1°F30.6°C 68.9°F20.5°C 55% 11.6 mph S18.7 kmh S 19.9 mph32.0 kmh 29.23 in989.8 mb 0.00 in0.0 mm 0.00 in0.0 mm 0.00 in0.0 mm
12:25 PM 87.6°F30.9°C 68.8°F20.4°C 54% 9.0 mph SSE14.5 kmh SSE 15.0 mph24.1 kmh 29.22 in989.5 mb 0.00 in0.0 mm 0.00 in0.0 mm 0.00 in0.0 mm
12:30 PM 87.8°F31.0°C 68.9°F20.5°C 54% 7.8 mph SSE12.6 kmh SSE 12.3 mph19.8 kmh 29.22 in989.5 mb 0.00 in0.0 mm 0.00 in0.0 mm 0.00 in0.0 mm
12:35 PM 87.9°F31.1°C 68.7°F20.4°C 53% 5.5 mph S8.9 kmh S 15.0 mph24.1 kmh 29.22 in989.5 mb 0.00 in0.0 mm 0.00 in0.0 mm 0.00 in0.0 mm
12:40 PM 88.2°F31.2°C 68.1°F20.1°C 52% 5.0 mph SSE8.0 kmh SSE 9.8 mph15.8 kmh 29.23 in989.8 mb 0.00 in0.0 mm 0.00 in0.0 mm 0.00 in0.0 mm
12:45 PM 88.7°F31.5°C 69.1°F20.6°C 52% 6.4 mph S10.3 kmh S 12.3 mph19.8 kmh 29.23 in989.8 mb 0.00 in0.0 mm 0.00 in0.0 mm 0.00 in0.0 mm
12:50 PM 89.1°F31.7°C 69.1°F20.6°C 52% 6.8 mph SSE10.9 kmh SSE 12.3 mph19.8 kmh 29.22 in989.5 mb 0.00 in0.0 mm 0.00 in0.0 mm 0.00 in0.0 mm
12:55 PM 89.1°F31.7°C 69.5°F20.8°C 53% 6.0 mph SSE9.7 kmh SSE 15.0 mph24.1 kmh 29.22 in989.5 mb 0.00 in0.0 mm 0.00 in0.0 mm 0.00 in0.0 mm
01:00 PM 89.1°F31.7°C 69.4°F20.8°C 52% 6.4 mph SE10.3 kmh SE 9.8 mph15.8 kmh 29.22 in989.5 mb 0.00 in0.0 mm 0.00 in0.0 mm 0.00 in0.0 mm
01:05 PM 89.1°F31.7°C 69.4°F20.8°C 52% 5.4 mph S8.7 kmh S 12.3 mph19.8 kmh 29.22 in989.5 mb 0.00 in0.0 mm 0.00 in0.0 mm 0.00 in0.0 mm
01:10 PM 89.1°F31.7°C 69.2°F20.7°C 52% 8.4 mph S13.5 kmh S 12.3 mph19.8 kmh 29.22 in989.5 mb 0.00 in0.0 mm 0.00 in0.0 mm 0.00 in0.0 mm
01:15 PM 89.1°F31.7°C 69.0°F20.6°C 52% 5.4 mph SSE8.7 kmh SSE 9.8 mph15.8 kmh 29.21 in989.2 mb 0.00 in0.0 mm 0.00 in0.0 mm 0.00 in0.0 mm
01:20 PM 89.1°F31.7°C 68.7°F20.4°C 51% 5.5 mph SSE8.9 kmh SSE 9.8 mph15.8 kmh 29.21 in989.2 mb 0.00 in0.0 mm 0.00 in0.0 mm 0.00 in0.0 mm
01:25 PM 89.8°F32.1°C 69.0°F20.6°C 51% 5.6 mph S9.0 kmh S 9.8 mph15.8 kmh 29.22 in989.5 mb 0.00 in0.0 mm 0.00 in0.0 mm 0.00 in0.0 mm
01:30 PM 90.3°F32.4°C 68.8°F20.4°C 50% 5.3 mph S8.5 kmh S 15.0 mph24.1 kmh 29.22 in989.5 mb 0.00 in0.0 mm 0.00 in0.0 mm 0.00 in0.0 mm
01:35 PM 90.3°F32.4°C 68.5°F20.3°C 49% 4.9 mph SSE7.9 kmh SSE 9.8 mph15.8 kmh 29.21 in989.2 mb 0.00 in0.0 mm 0.00 in0.0 mm 0.00 in0.0 mm
01:40 PM 90.4°F32.4°C 68.6°F20.3°C 49% 5.2 mph SE8.4 kmh SE 9.8 mph15.8 kmh 29.21 in989.2 mb 0.00 in0.0 mm 0.00 in0.0 mm 0.00 in0.0 mm
01:45 PM 90.7°F32.6°C 69.4°F20.8°C 50% 4.9 mph SSE7.9 kmh SSE 7.4 mph11.9 kmh 29.20 in988.8 mb 0.00 in0.0 mm 0.00 in0.0 mm 0.00 in0.0 mm
01:50 PM 90.9°F32.7°C 68.2°F20.1°C 48% 4.0 mph S6.4 kmh S 12.3 mph19.8 kmh 29.21 in989.2 mb 0.00 in0.0 mm 0.00 in0.0 mm 0.00 in0.0 mm
01:55 PM 91.0°F32.8°C 68.4°F20.2°C 48% 4.1 mph S6.6 kmh S 12.3 mph19.8 kmh 29.21 in989.2 mb 0.00 in0.0 mm 0.00 in0.0 mm 0.00 in0.0 mm
02:00 PM 91.2°F32.9°C 69.1°F20.6°C 49% 6.9 mph S11.1 kmh S 12.3 mph19.8 kmh 29.20 in988.8 mb 0.00 in0.0 mm 0.00 in0.0 mm 0.00 in0.0 mm
02:05 PM 91.3°F32.9°C 69.6°F20.9°C 49% 6.8 mph SE10.9 kmh SE 12.3 mph19.8 kmh 29.21 in989.2 mb 0.00 in0.0 mm 0.00 in0.0 mm 0.00 in0.0 mm
02:10 PM 91.4°F33.0°C 69.4°F20.8°C 49% 10.2 mph SSE16.4 kmh SSE 17.4 mph28.0 kmh 29.21 in989.2 mb 0.00 in0.0 mm 0.00 in0.0 mm 0.00 in0.0 mm
02:15 PM 91.2°F32.9°C 69.9°F21.1°C 50% 4.9 mph SSE7.9 kmh SSE 12.3 mph19.8 kmh 29.21 in989.2 mb 0.00 in0.0 mm 0.00 in0.0 mm 0.00 in0.0 mm
02:20 PM 91.2°F32.9°C 69.0°F20.6°C 48% 4.7 mph SSE7.6 kmh SSE 12.3 mph19.8 kmh 29.20 in988.8 mb 0.00 in0.0 mm 0.00 in0.0 mm 0.00 in0.0 mm
02:25 PM 91.9°F33.3°C 68.8°F20.4°C 47% 5.2 mph S8.4 kmh S 12.3 mph19.8 kmh 29.20 in988.8 mb 0.00 in0.0 mm 0.00 in0.0 mm 0.00 in0.0 mm
02:30 PM 92.7°F33.7°C 69.0°F20.6°C 46% 4.7 mph S7.6 kmh S 15.0 mph24.1 kmh 29.20 in988.8 mb 0.00 in0.0 mm 0.00 in0.0 mm 0.00 in0.0 mm
02:35 PM 92.7°F33.7°C 68.9°F20.5°C 46% 5.3 mph SSW8.5 kmh SSW 9.8 mph15.8 kmh 29.19 in988.5 mb 0.00 in0.0 mm 0.00 in0.0 mm 0.00 in0.0 mm
02:40 PM 92.7°F33.7°C 69.3°F20.7°C 47% 5.2 mph SSE8.4 kmh SSE 9.8 mph15.8 kmh 29.19 in988.5 mb 0.00 in0.0 mm 0.00 in0.0 mm 0.00 in0.0 mm
02:45 PM 92.6°F33.7°C 68.7°F20.4°C 46% 6.5 mph S10.5 kmh S 12.3 mph19.8 kmh 29.20 in988.8 mb 0.00 in0.0 mm 0.00 in0.0 mm 0.00 in0.0 mm
02:50 PM 92.1°F33.4°C 68.3°F20.2°C 46% 6.2 mph SSE10.0 kmh SSE 12.3 mph19.8 kmh 29.19 in988.5 mb 0.00 in0.0 mm 0.00 in0.0 mm 0.00 in0.0 mm
02:55 PM 92.2°F33.4°C 67.9°F19.9°C 45% 6.5 mph S10.5 kmh S 15.0 mph24.1 kmh 29.18 in988.1 mb 0.00 in0.0 mm 0.00 in0.0 mm 0.00 in0.0 mm
03:00 PM 92.5°F33.6°C 68.1°F20.1°C 45% 8.2 mph SSE13.2 kmh SSE 17.4 mph28.0 kmh 29.19 in988.5 mb 0.00 in0.0 mm 0.00 in0.0 mm 0.00 in0.0 mm
03:05 PM 92.7°F33.7°C 68.6°F20.3°C 46% 5.4 mph SE8.7 kmh SE 9.8 mph15.8 kmh 29.19 in988.5 mb 0.00 in0.0 mm 0.00 in0.0 mm 0.00 in0.0 mm
03:10 PM 93.0°F33.9°C 68.0°F20.0°C 44% 5.8 mph SSE9.3 kmh SSE 9.8 mph15.8 kmh 29.19 in988.5 mb 0.00 in0.0 mm 0.00 in0.0 mm 0.00 in0.0 mm
03:15 PM 93.0°F33.9°C 68.2°F20.1°C 44% 5.2 mph SE8.4 kmh SE 12.3 mph19.8 kmh 29.18 in988.1 mb 0.00 in0.0 mm 0.00 in0.0 mm 0.00 in0.0 mm
03:20 PM 93.2°F34.0°C 68.7°F20.4°C 45% 7.2 mph SSE11.6 kmh SSE 15.0 mph24.1 kmh 29.18 in988.1 mb 0.00 in0.0 mm 0.00 in0.0 mm 0.00 in0.0 mm
03:25 PM 93.1°F33.9°C 68.3°F20.2°C 45% 5.8 mph SE9.3 kmh SE 9.8 mph15.8 kmh 29.18 in988.1 mb 0.00 in0.0 mm 0.00 in0.0 mm 0.00 in0.0 mm
03:30 PM 92.7°F33.7°C 67.6°F19.8°C 44% 5.1 mph SSW8.2 kmh SSW 12.3 mph19.8 kmh 29.18 in988.1 mb 0.00 in0.0 mm 0.00 in0.0 mm 0.00 in0.0 mm
03:35 PM 92.9°F33.8°C 68.1°F20.1°C 45% 5.8 mph S9.3 kmh S 12.3 mph19.8 kmh 29.18 in988.1 mb 0.00 in0.0 mm 0.00 in0.0 mm 0.00 in0.0 mm
03:40 PM 93.2°F34.0°C 67.5°F19.7°C 43% 7.1 mph S11.4 kmh S 15.0 mph24.1 kmh 29.18 in988.1 mb 0.00 in0.0 mm 0.00 in0.0 mm 0.00 in0.0 mm
03:45 PM 93.3°F34.1°C 68.4°F20.2°C 44% 8.1 mph SE13.0 kmh SE 17.4 mph28.0 kmh 29.18 in988.1 mb 0.00 in0.0 mm 0.00 in0.0 mm 0.00 in0.0 mm
03:50 PM 93.0°F33.9°C 68.4°F20.2°C 45% 11.4 mph S18.3 kmh S 15.0 mph24.1 kmh 29.18 in988.1 mb 0.00 in0.0 mm 0.00 in0.0 mm 0.00 in0.0 mm
03:55 PM 93.1°F33.9°C 67.9°F19.9°C 44% 6.8 mph SE10.9 kmh SE 9.8 mph15.8 kmh 29.18 in988.1 mb 0.00 in0.0 mm 0.00 in0.0 mm 0.00 in0.0 mm
04:00 PM 93.3°F34.1°C 67.9°F19.9°C 44% 8.2 mph SSE13.2 kmh SSE 15.0 mph24.1 kmh 29.17 in987.8 mb 0.00 in0.0 mm 0.00 in0.0 mm 0.00 in0.0 mm
04:05 PM 93.8°F34.3°C 67.6°F19.8°C 43% 6.4 mph SSE10.3 kmh SSE 15.0 mph24.1 kmh 29.17 in987.8 mb 0.00 in0.0 mm 0.00 in0.0 mm 0.00 in0.0 mm
04:10 PM 95.0°F35.0°C 68.7°F20.4°C 43% 5.1 mph SSE8.2 kmh SSE 9.8 mph15.8 kmh 29.17 in987.8 mb 0.00 in0.0 mm 0.00 in0.0 mm 0.00 in0.0 mm
04:15 PM 94.9°F34.9°C 68.5°F20.3°C 42% 8.4 mph SSE13.5 kmh SSE 15.0 mph24.1 kmh 29.16 in987.5 mb 0.00 in0.0 mm 0.00 in0.0 mm 0.00 in0.0 mm
04:20 PM 94.8°F34.9°C 68.4°F20.2°C 42% 5.3 mph SE8.5 kmh SE 12.3 mph19.8 kmh 29.16 in987.5 mb 0.00 in0.0 mm 0.00 in0.0 mm 0.00 in0.0 mm
04:25 PM 94.8°F34.9°C 68.8°F20.4°C 43% 7.6 mph SSE12.2 kmh SSE 17.4 mph28.0 kmh 29.16 in987.5 mb 0.00 in0.0 mm 0.00 in0.0 mm 0.00 in0.0 mm
04:30 PM 93.7°F34.3°C 68.4°F20.2°C 44% 6.7 mph SSE10.8 kmh SSE 12.3 mph19.8 kmh 29.16 in987.5 mb 0.00 in0.0 mm 0.00 in0.0 mm 0.00 in0.0 mm
04:35 PM 93.7°F34.3°C 68.5°F20.3°C 44% 6.4 mph SSE10.3 kmh SSE 12.3 mph19.8 kmh 29.16 in987.5 mb 0.00 in0.0 mm 0.00 in0.0 mm 0.00 in0.0 mm
04:40 PM 94.0°F34.4°C 67.9°F19.9°C 43% 3.3 mph SSE5.3 kmh SSE 7.4 mph11.9 kmh 29.16 in987.5 mb 0.00 in0.0 mm 0.00 in0.0 mm 0.00 in0.0 mm
04:45 PM 94.4°F34.7°C 67.6°F19.8°C 42% 5.1 mph S8.2 kmh S 9.8 mph15.8 kmh 29.16 in987.5 mb 0.00 in0.0 mm 0.00 in0.0 mm 0.00 in0.0 mm
04:50 PM 95.4°F35.2°C 69.9°F21.1°C 44% 5.6 mph SSE9.0 kmh SSE 9.8 mph15.8 kmh 29.16 in987.5 mb 0.00 in0.0 mm 0.00 in0.0 mm 0.00 in0.0 mm
04:55 PM 95.2°F35.1°C 70.0°F21.1°C 44% 7.6 mph SE12.2 kmh SE 15.0 mph24.1 kmh 29.15 in987.1 mb 0.00 in0.0 mm 0.00 in0.0 mm 0.00 in0.0 mm
05:00 PM 95.0°F35.0°C 68.7°F20.4°C 43% 8.2 mph SE13.2 kmh SE 17.4 mph28.0 kmh 29.15 in987.1 mb 0.00 in0.0 mm 0.00 in0.0 mm 0.00 in0.0 mm
05:05 PM 95.0°F35.0°C 68.9°F20.5°C 43% 8.7 mph SE14.0 kmh SE 17.4 mph28.0 kmh 29.15 in987.1 mb 0.00 in0.0 mm 0.00 in0.0 mm 0.00 in0.0 mm
05:10 PM 94.8°F34.9°C 68.5°F20.3°C 43% 4.7 mph SE7.6 kmh SE 9.8 mph15.8 kmh 29.15 in987.1 mb 0.00 in0.0 mm 0.00 in0.0 mm 0.00 in0.0 mm
05:15 PM 94.8°F34.9°C 68.2°F20.1°C 42% 6.0 mph SSE9.7 kmh SSE 15.0 mph24.1 kmh 29.15 in987.1 mb 0.00 in0.0 mm 0.00 in0.0 mm 0.00 in0.0 mm
05:20 PM 94.8°F34.9°C 68.8°F20.4°C 43% 5.3 mph SE8.5 kmh SE 12.3 mph19.8 kmh 29.15 in987.1 mb 0.00 in0.0 mm 0.00 in0.0 mm 0.00 in0.0 mm
05:25 PM 94.6°F34.8°C 68.8°F20.4°C 43% 6.7 mph SE10.8 kmh SE 12.3 mph19.8 kmh 29.16 in987.5 mb 0.00 in0.0 mm 0.00 in0.0 mm 0.00 in0.0 mm
05:30 PM 94.1°F34.5°C 68.4°F20.2°C 43% 4.0 mph SE6.4 kmh SE 7.4 mph11.9 kmh 29.16 in987.5 mb 0.00 in0.0 mm 0.00 in0.0 mm 0.00 in0.0 mm
05:35 PM 94.1°F34.5°C 68.8°F20.4°C 44% 6.8 mph SSE10.9 kmh SSE 12.3 mph19.8 kmh 29.16 in987.5 mb 0.00 in0.0 mm 0.00 in0.0 mm 0.00 in0.0 mm
05:40 PM 94.1°F34.5°C 68.8°F20.4°C 44% 5.1 mph SE8.2 kmh SE 7.4 mph11.9 kmh 29.15 in987.1 mb 0.00 in0.0 mm 0.00 in0.0 mm 0.00 in0.0 mm
05:45 PM 94.1°F34.5°C 68.1°F20.1°C 43% 7.1 mph SE11.4 kmh SE 12.3 mph19.8 kmh 29.15 in987.1 mb 0.00 in0.0 mm 0.00 in0.0 mm 0.00 in0.0 mm
05:50 PM 94.1°F34.5°C 68.8°F20.4°C 44% 7.0 mph SSE11.3 kmh SSE 12.3 mph19.8 kmh 29.15 in987.1 mb 0.00 in0.0 mm 0.00 in0.0 mm 0.00 in0.0 mm
05:55 PM 93.9°F34.4°C 69.0°F20.6°C 44% 3.7 mph SE6.0 kmh SE 7.4 mph11.9 kmh 29.15 in987.1 mb 0.00 in0.0 mm 0.00 in0.0 mm 0.00 in0.0 mm
06:00 PM 93.9°F34.4°C 69.3°F20.7°C 45% 7.3 mph SSE11.7 kmh SSE 15.0 mph24.1 kmh 29.15 in987.1 mb 0.00 in0.0 mm 0.00 in0.0 mm 0.00 in0.0 mm
06:05 PM 93.9°F34.4°C 68.7°F20.4°C 44% 7.2 mph SSE11.6 kmh SSE 15.0 mph24.1 kmh 29.15 in987.1 mb 0.00 in0.0 mm 0.00 in0.0 mm 0.00 in0.0 mm
06:10 PM 94.0°F34.4°C 69.0°F20.6°C 44% 4.8 mph S7.7 kmh S 9.8 mph15.8 kmh 29.15 in987.1 mb 0.00 in0.0 mm 0.00 in0.0 mm 0.00 in0.0 mm
06:15 PM 94.0°F34.4°C 69.2°F20.7°C 45% 6.0 mph S9.7 kmh S 15.0 mph24.1 kmh 29.15 in987.1 mb 0.00 in0.0 mm 0.00 in0.0 mm 0.00 in0.0 mm
06:20 PM 93.9°F34.4°C 68.8°F20.4°C 44% 4.4 mph SSE7.1 kmh SSE 12.3 mph19.8 kmh 29.15 in987.1 mb 0.00 in0.0 mm 0.00 in0.0 mm 0.00 in0.0 mm
06:25 PM 93.9°F34.4°C 68.6°F20.3°C 44% 8.4 mph S13.5 kmh S 15.0 mph24.1 kmh 29.15 in987.1 mb 0.00 in0.0 mm 0.00 in0.0 mm 0.00 in0.0 mm
06:30 PM 93.9°F34.4°C 69.2°F20.7°C 45% 5.4 mph SSE8.7 kmh SSE 12.3 mph19.8 kmh 29.15 in987.1 mb 0.00 in0.0 mm 0.00 in0.0 mm 0.00 in0.0 mm
06:35 PM 93.7°F34.3°C 69.0°F20.6°C 45% 5.8 mph S9.3 kmh S 9.8 mph15.8 kmh 29.15 in987.1 mb 0.00 in0.0 mm 0.00 in0.0 mm 0.00 in0.0 mm
06:40 PM 93.7°F34.3°C 69.5°F20.8°C 46% 7.2 mph SSE11.6 kmh SSE 17.4 mph28.0 kmh 29.15 in987.1 mb 0.00 in0.0 mm 0.00 in0.0 mm 0.00 in0.0 mm
06:45 PM 93.6°F34.2°C 70.1°F21.2°C 47% 8.9 mph SSE14.3 kmh SSE 15.0 mph24.1 kmh 29.15 in987.1 mb 0.00 in0.0 mm 0.00 in0.0 mm 0.00 in0.0 mm
06:50 PM 93.1°F33.9°C 69.4°F20.8°C 46% 5.2 mph SSE8.4 kmh SSE 9.8 mph15.8 kmh 29.15 in987.1 mb 0.00 in0.0 mm 0.00 in0.0 mm 0.00 in0.0 mm
06:55 PM 93.0°F33.9°C 69.4°F20.8°C 46% 8.6 mph SSE13.8 kmh SSE 15.0 mph24.1 kmh 29.16 in987.5 mb 0.00 in0.0 mm 0.00 in0.0 mm 0.00 in0.0 mm
07:00 PM 93.0°F33.9°C 69.2°F20.7°C 46% 5.7 mph S9.2 kmh S 9.8 mph15.8 kmh 29.16 in987.5 mb 0.00 in0.0 mm 0.00 in0.0 mm 0.00 in0.0 mm
07:05 PM 92.9°F33.8°C 69.6°F20.9°C 47% 6.5 mph S10.5 kmh S 9.8 mph15.8 kmh 29.15 in987.1 mb 0.00 in0.0 mm 0.00 in0.0 mm 0.00 in0.0 mm
07:10 PM 92.8°F33.8°C 70.0°F21.1°C 48% 3.5 mph S5.6 kmh S 7.4 mph11.9 kmh 29.16 in987.5 mb 0.00 in0.0 mm 0.00 in0.0 mm 0.00 in0.0 mm
07:15 PM 92.8°F33.8°C 69.9°F21.1°C 48% 4.8 mph SSE7.7 kmh SSE 12.3 mph19.8 kmh 29.16 in987.5 mb 0.00 in0.0 mm 0.00 in0.0 mm 0.00 in0.0 mm
07:20 PM 92.8°F33.8°C 69.6°F20.9°C 47% 5.5 mph S8.9 kmh S 15.0 mph24.1 kmh 29.16 in987.5 mb 0.00 in0.0 mm 0.00 in0.0 mm 0.00 in0.0 mm
07:25 PM 92.8°F33.8°C 70.1°F21.2°C 48% 3.8 mph SSE6.1 kmh SSE 9.8 mph15.8 kmh 29.16 in987.5 mb 0.00 in0.0 mm 0.00 in0.0 mm 0.00 in0.0 mm
07:30 PM 92.3°F33.5°C 69.6°F20.9°C 48% 6.0 mph SSE9.7 kmh SSE 9.8 mph15.8 kmh 29.16 in987.5 mb 0.00 in0.0 mm 0.00 in0.0 mm 0.00 in0.0 mm
07:35 PM 91.9°F33.3°C 68.7°F20.4°C 47% 4.8 mph S7.7 kmh S 7.4 mph11.9 kmh 29.16 in987.5 mb 0.00 in0.0 mm 0.00 in0.0 mm 0.00 in0.0 mm
07:40 PM 91.9°F33.3°C 68.7°F20.4°C 47% 8.1 mph SSE13.0 kmh SSE 19.9 mph32.0 kmh 29.17 in987.8 mb 0.00 in0.0 mm 0.00 in0.0 mm 0.00 in0.0 mm
07:45 PM 91.9°F33.3°C 68.7°F20.4°C 47% 4.3 mph SE6.9 kmh SE 12.3 mph19.8 kmh 29.17 in987.8 mb 0.00 in0.0 mm 0.00 in0.0 mm 0.00 in0.0 mm
07:50 PM 91.6°F33.1°C 68.5°F20.3°C 47% 7.4 mph SSE11.9 kmh SSE 22.4 mph36.0 kmh 29.17 in987.8 mb 0.00 in0.0 mm 0.00 in0.0 mm 0.00 in0.0 mm
07:55 PM 91.2°F32.9°C 68.7°F20.4°C 48% 7.1 mph SSE11.4 kmh SSE 12.3 mph19.8 kmh 29.17 in987.8 mb 0.00 in0.0 mm 0.00 in0.0 mm 0.00 in0.0 mm
08:00 PM 91.2°F32.9°C 69.1°F20.6°C 49% 4.3 mph SE6.9 kmh SE 7.4 mph11.9 kmh 29.17 in987.8 mb 0.00 in0.0 mm 0.00 in0.0 mm 0.00 in0.0 mm
08:05 PM 91.0°F32.8°C 69.1°F20.6°C 49% 5.1 mph SE8.2 kmh SE 15.0 mph24.1 kmh 29.17 in987.8 mb 0.00 in0.0 mm 0.00 in0.0 mm 0.00 in0.0 mm
08:10 PM 90.8°F32.7°C 68.9°F20.5°C 49% 2.6 mph SE4.2 kmh SE 9.8 mph15.8 kmh 29.18 in988.1 mb 0.00 in0.0 mm 0.00 in0.0 mm 0.00 in0.0 mm
08:15 PM 90.5°F32.5°C 69.0°F20.6°C 50% 3.9 mph SE6.3 kmh SE 7.4 mph11.9 kmh 29.18 in988.1 mb 0.00 in0.0 mm 0.00 in0.0 mm 0.00 in0.0 mm
08:20 PM 90.4°F32.4°C 70.8°F21.6°C 53% 4.1 mph SE6.6 kmh SE 7.4 mph11.9 kmh 29.18 in988.1 mb 0.00 in0.0 mm 0.00 in0.0 mm 0.00 in0.0 mm
08:25 PM 90.2°F32.3°C 71.5°F21.9°C 54% 3.4 mph SE5.5 kmh SE 9.8 mph15.8 kmh 29.18 in988.1 mb 0.00 in0.0 mm 0.00 in0.0 mm 0.00 in0.0 mm
08:30 PM 89.6°F32.0°C 71.3°F21.8°C 55% 3.3 mph SSE5.3 kmh SSE 4.9 mph7.9 kmh 29.17 in987.8 mb 0.00 in0.0 mm 0.00 in0.0 mm 0.00 in0.0 mm
08:35 PM 88.9°F31.6°C 70.6°F21.4°C 55% 5.4 mph SE8.7 kmh SE 9.8 mph15.8 kmh 29.17 in987.8 mb 0.00 in0.0 mm 0.00 in0.0 mm 0.00 in0.0 mm
08:40 PM 88.9°F31.6°C 71.0°F21.7°C 56% 6.3 mph SE10.1 kmh SE 15.0 mph24.1 kmh 29.18 in988.1 mb 0.00 in0.0 mm 0.00 in0.0 mm 0.00 in0.0 mm
08:45 PM 88.8°F31.6°C 71.0°F21.7°C 56% 7.0 mph SSE11.3 kmh SSE 15.0 mph24.1 kmh 29.18 in988.1 mb 0.00 in0.0 mm 0.00 in0.0 mm 0.00 in0.0 mm
08:50 PM 88.6°F31.4°C 70.8°F21.6°C 56% 4.9 mph E7.9 kmh E 9.8 mph15.8 kmh 29.18 in988.1 mb 0.00 in0.0 mm 0.00 in0.0 mm 0.00 in0.0 mm
08:55 PM 88.1°F31.2°C 70.9°F21.6°C 57% 4.5 mph SE7.2 kmh SE 9.8 mph15.8 kmh 29.18 in988.1 mb 0.00 in0.0 mm 0.00 in0.0 mm 0.00 in0.0 mm
09:00 PM 88.0°F31.1°C 70.9°F21.6°C 57% 5.7 mph SE9.2 kmh SE 9.8 mph15.8 kmh 29.18 in988.1 mb 0.00 in0.0 mm 0.00 in0.0 mm 0.00 in0.0 mm
09:05 PM 88.0°F31.1°C 71.8°F22.1°C 59% 5.2 mph SSE8.4 kmh SSE 9.8 mph15.8 kmh 29.18 in988.1 mb 0.00 in0.0 mm 0.00 in0.0 mm 0.00 in0.0 mm
09:10 PM 87.6°F30.9°C 71.7°F22.1°C 59% 5.9 mph SE9.5 kmh SE 9.8 mph15.8 kmh 29.19 in988.5 mb 0.00 in0.0 mm 0.00 in0.0 mm 0.00 in0.0 mm
09:15 PM 87.3°F30.7°C 71.7°F22.1°C 60% 5.1 mph SE8.2 kmh SE 9.8 mph15.8 kmh 29.19 in988.5 mb 0.00 in0.0 mm 0.00 in0.0 mm 0.00 in0.0 mm
09:20 PM 87.3°F30.7°C 71.9°F22.2°C 60% 5.7 mph S9.2 kmh S 12.3 mph19.8 kmh 29.18 in988.1 mb 0.00 in0.0 mm 0.00 in0.0 mm 0.00 in0.0 mm
09:25 PM 87.3°F30.7°C 72.2°F22.3°C 61% 2.6 mph SE4.2 kmh SE 7.4 mph11.9 kmh 29.19 in988.5 mb 0.00 in0.0 mm 0.00 in0.0 mm 0.00 in0.0 mm
09:30 PM 87.0°F30.6°C 71.9°F22.2°C 61% 5.1 mph E8.2 kmh E 9.8 mph15.8 kmh 29.19 in988.5 mb 0.00 in0.0 mm 0.00 in0.0 mm 0.00 in0.0 mm
09:35 PM 86.5°F30.3°C 71.8°F22.1°C 62% 5.3 mph SE8.5 kmh SE 9.8 mph15.8 kmh 29.19 in988.5 mb 0.00 in0.0 mm 0.00 in0.0 mm 0.00 in0.0 mm
09:40 PM 86.5°F30.3°C 71.9°F22.2°C 62% 5.3 mph E8.5 kmh E 12.3 mph19.8 kmh 29.20 in988.8 mb 0.00 in0.0 mm 0.00 in0.0 mm 0.00 in0.0 mm
09:45 PM 86.5°F30.3°C 71.9°F22.2°C 62% 4.9 mph ESE7.9 kmh ESE 7.4 mph11.9 kmh 29.20 in988.8 mb 0.00 in0.0 mm 0.00 in0.0 mm 0.00 in0.0 mm
09:50 PM 86.3°F30.2°C 72.2°F22.3°C 63% 5.4 mph SE8.7 kmh SE 9.8 mph15.8 kmh 29.19 in988.5 mb 0.00 in0.0 mm 0.00 in0.0 mm 0.00 in0.0 mm
09:55 PM 85.8°F29.9°C 72.2°F22.3°C 64% 5.4 mph SE8.7 kmh SE 9.8 mph15.8 kmh 29.20 in988.8 mb 0.00 in0.0 mm 0.00 in0.0 mm 0.00 in0.0 mm
10:00 PM 85.8°F29.9°C 72.4°F22.4°C 64% 3.7 mph ESE6.0 kmh ESE 7.4 mph11.9 kmh 29.20 in988.8 mb 0.00 in0.0 mm 0.00 in0.0 mm 0.00 in0.0 mm
10:05 PM 85.7°F29.8°C 72.5°F22.5°C 65% 4.0 mph SSE6.4 kmh SSE 9.8 mph15.8 kmh 29.20 in988.8 mb 0.00 in0.0 mm 0.00 in0.0 mm 0.00 in0.0 mm
10:10 PM 85.5°F29.7°C 72.4°F22.4°C 65% 5.0 mph SE8.0 kmh SE 9.8 mph15.8 kmh 29.21 in989.2 mb 0.00 in0.0 mm 0.00 in0.0 mm 0.00 in0.0 mm
10:15 PM 85.1°F29.5°C 72.0°F22.2°C 65% 4.3 mph SE6.9 kmh SE 7.4 mph11.9 kmh 29.21 in989.2 mb 0.00 in0.0 mm 0.00 in0.0 mm 0.00 in0.0 mm
10:20 PM 85.1°F29.5°C 72.1°F22.3°C 65% 4.9 mph ESE7.9 kmh ESE 9.8 mph15.8 kmh 29.21 in989.2 mb 0.00 in0.0 mm 0.00 in0.0 mm 0.00 in0.0 mm
10:25 PM 85.0°F29.4°C 72.4°F22.4°C 66% 9.0 mph SSE14.5 kmh SSE 12.3 mph19.8 kmh 29.21 in989.2 mb 0.00 in0.0 mm 0.00 in0.0 mm 0.00 in0.0 mm
10:30 PM 84.9°F29.4°C 72.2°F22.3°C 66% 6.7 mph SE10.8 kmh SE 12.3 mph19.8 kmh 29.21 in989.2 mb 0.00 in0.0 mm 0.00 in0.0 mm 0.00 in0.0 mm
10:35 PM 84.5°F29.2°C 71.9°F22.2°C 66% 4.6 mph SE7.4 kmh SE 7.4 mph11.9 kmh 29.22 in989.5 mb 0.00 in0.0 mm 0.00 in0.0 mm 0.00 in0.0 mm
10:40 PM 84.4°F29.1°C 71.8°F22.1°C 66% 6.4 mph SE10.3 kmh SE 9.8 mph15.8 kmh 29.21 in989.2 mb 0.00 in0.0 mm 0.00 in0.0 mm 0.00 in0.0 mm
10:45 PM 84.4°F29.1°C 72.1°F22.3°C 67% 5.4 mph SE8.7 kmh SE 9.8 mph15.8 kmh 29.22 in989.5 mb 0.00 in0.0 mm 0.00 in0.0 mm 0.00 in0.0 mm
10:50 PM 84.4°F29.1°C 72.6°F22.6°C 68% 5.3 mph E8.5 kmh E 12.3 mph19.8 kmh 29.22 in989.5 mb 0.00 in0.0 mm 0.00 in0.0 mm 0.00 in0.0 mm
10:55 PM 83.9°F28.8°C 72.1°F22.3°C 68% 4.0 mph SSE6.4 kmh SSE 7.4 mph11.9 kmh 29.22 in989.5 mb 0.00 in0.0 mm 0.00 in0.0 mm 0.00 in0.0 mm
11:00 PM 83.8°F28.8°C 72.3°F22.4°C 68% 8.4 mph SE13.5 kmh SE 17.4 mph28.0 kmh 29.23 in989.8 mb 0.00 in0.0 mm 0.00 in0.0 mm 0.00 in0.0 mm
11:05 PM 83.8°F28.8°C 72.5°F22.5°C 69% 6.1 mph SE9.8 kmh SE 9.8 mph15.8 kmh 29.23 in989.8 mb 0.00 in0.0 mm 0.00 in0.0 mm 0.00 in0.0 mm
11:10 PM 83.7°F28.7°C 72.4°F22.4°C 69% 7.8 mph SSE12.6 kmh SSE 19.9 mph32.0 kmh 29.23 in989.8 mb 0.00 in0.0 mm 0.00 in0.0 mm 0.00 in0.0 mm
11:15 PM 83.1°F28.4°C 71.9°F22.2°C 69% 6.0 mph SE9.7 kmh SE 9.8 mph15.8 kmh 29.23 in989.8 mb 0.00 in0.0 mm 0.00 in0.0 mm 0.00 in0.0 mm
11:20 PM 83.1°F28.4°C 71.9°F22.2°C 69% 5.8 mph SE9.3 kmh SE 12.3 mph19.8 kmh 29.23 in989.8 mb 0.00 in0.0 mm 0.00 in0.0 mm 0.00 in0.0 mm
11:25 PM 83.1°F28.4°C 71.9°F22.2°C 69% 5.9 mph SE9.5 kmh SE 12.3 mph19.8 kmh 29.23 in989.8 mb 0.00 in0.0 mm 0.00 in0.0 mm 0.00 in0.0 mm
11:30 PM 83.1°F28.4°C 71.9°F22.2°C 69% 4.7 mph SSE7.6 kmh SSE 12.3 mph19.8 kmh 29.24 in990.2 mb 0.00 in0.0 mm 0.00 in0.0 mm 0.00 in0.0 mm
11:35 PM 82.8°F28.2°C 71.6°F22.0°C 69% 8.2 mph SSE13.2 kmh SSE 15.0 mph24.1 kmh 29.24 in990.2 mb 0.00 in0.0 mm 0.00 in0.0 mm 0.00 in0.0 mm
11:40 PM 82.8°F28.2°C 71.8°F22.1°C 70% 7.7 mph ESE12.4 kmh ESE 15.0 mph24.1 kmh 29.24 in990.2 mb 0.00 in0.0 mm 0.00 in0.0 mm 0.00 in0.0 mm
11:45 PM 82.8°F28.2°C 72.0°F22.2°C 70% 4.9 mph SE7.9 kmh SE 12.3 mph19.8 kmh 29.24 in990.2 mb 0.00 in0.0 mm 0.00 in0.0 mm 0.00 in0.0 mm
11:50 PM 82.6°F28.1°C 71.8°F22.1°C 70% 6.7 mph SSE10.8 kmh SSE 12.3 mph19.8 kmh 29.24 in990.2 mb 0.00 in0.0 mm 0.00 in0.0 mm 0.00 in0.0 mm
11:55 PM 82.6°F28.1°C 71.8°F22.1°C 70% 5.9 mph SE9.5 kmh SE 9.8 mph15.8 kmh 29.24 in990.2 mb 0.00 in0.0 mm 0.00 in0.0 mm 0.00 in0.0 mm